NCAR-RAP Real-Time Weather Data

Output produced by METARs form (14 October 2019  23:29 UTC)
found at http://weather.rap.ucar.edu/surface/
 
KCLE 142251Z 30005KT 10SM FEW055 11/02 A3010 RMK AO2 SLP195 T01110022 $
KCLE 142151Z 29009KT 10SM FEW055 13/02 A3009 RMK AO2 SLP191 T01280022 $
KCLE 142051Z 29007KT 10SM SCT047 13/02 A3008 RMK AO2 SLP187 T01330022 53002 $
KCLE 141951Z 27008G15KT 10SM SCT045 14/03 A3007 RMK AO2 SLP182 T01390028 $
KCLE 141851Z 27009KT 10SM FEW043 SCT050 13/02 A3007 RMK AO2 SLP183 T01330022 $
KCLE 141751Z 29011G17KT 10SM BKN046 12/02 A3007 RMK AO2 SLP184 T01220017 10139 20083 50003 $
KCLE 141651Z 29013KT 10SM BKN044 13/02 A3008 RMK AO2 SLP185 T01280022 $
KCLE 141551Z 26015G20KT 10SM BKN045 12/02 A3008 RMK AO2 SLP184 T01170017 $
KCLE 141451Z 27012G21KT 10SM SCT060 12/02 A3006 RMK AO2 SLP179 T01220022 51018 $
KCLE 141351Z 24008KT 10SM FEW030 BKN060 11/03 A3005 RMK AO2 SLP176 T01060033 $
KCLE 141251Z 24008KT 10SM FEW030 BKN060 09/03 A3003 RMK AO2 SLP170 T00940028 $
KCLE 141151Z 22007KT 10SM FEW055 BKN080 08/03 A3001 RMK AO2 SLP162 T00830028 10128 20072 51018 $
KCLE 141051Z 23007KT 10SM BKN085 09/04 A3000 RMK AO2 SLP157 T00890039 $
KCLE 140951Z 24006KT 10SM FEW030 BKN100 08/06 A2998 RMK AO2 SLP152 T00830056 $
KCLE 140851Z 24004KT 10SM FEW032 FEW070 SCT120 09/05 A2995 RMK AO2 SLP142 T00890050 53010 $
KCLE 140751Z 29004KT 10SM FEW075 FEW120 11/06 A2993 RMK AO2 SLP135 T01060056 $
KCLE 140651Z 33007KT 10SM FEW070 BKN140 12/06 A2993 RMK AO2 SLP134 T01220061 $
KCLE 140551Z 26005KT 10SM BKN130 13/02 A2992 RMK AO2 SLP131 T01280022 10161 20128 53013 $
KCLE 140451Z 25009KT 10SM FEW120 BKN160 14/01 A2990 RMK AO2 SLP124 T01390011 402000061 $
KCLE 140351Z 22007KT 10SM BKN150 15/01 A2989 RMK AO2 SLP120 T01500006 $
KCLE 140251Z 20011KT 10SM BKN170 15/M01 A2988 RMK AO2 SLP118 T01501006 50005 $
KCLE 140151Z 20009KT 10SM SCT150 16/M01 A2988 RMK AO2 SLP119 T01561006 $
KCLE 140051Z 20011KT 10SM FEW200 16/M01 A2987 RMK AO2 SLP116 T01561006 $
KCLE 132351Z 19009KT 10SM CLR 16/M01 A2987 RMK AO2 SLP115 T01561006 10200 20156 53009 $
KCLE 132251Z 20009KT 10SM CLR 17/M01 A2986 RMK AO2 SLP111 T01721011 $
KCLE 132151Z 21014G26KT 10SM CLR 19/M02 A2984 RMK AO2 PK WND 20026/2142 SLP105 T01941017 $
KCLE 132051Z 20012KT 10SM CLR 20/M02 A2984 RMK AO2 SLP104 T02001022 56022 $
KCLE 131951Z 21014G22KT 10SM CLR 20/M03 A2986 RMK AO2 PK WND 20026/1917 SLP110 T02001028 $
KCLE 131851Z 21019G24KT 10SM CLR 19/M02 A2988 RMK AO2 PK WND 20027/1832 SLP119 T01941017 $
KCLE 131751Z 20018G28KT 10SM CLR 18/M03 A2991 RMK AO2 PK WND 20028/1744 SLP126 T01831028 10183 20067 58025 $
KCLE 131651Z 22017G23KT 10SM FEW200 18/M01 A2994 RMK AO2 SLP137 T01781011 $
KCLE 131551Z 20016G21KT 10SM FEW250 15/M01 A2997 RMK AO2 SLP148 T01501006 $
KCLE 131451Z 18013G23KT 10SM FEW250 13/01 A2998 RMK AO2 SLP154 T01330011 58012 $
KCLE 131351Z 19012KT 10SM CLR 11/01 A3000 RMK AO2 SLP162 T01110006 $
KCLE 131251Z 19011KT 10SM CLR 08/00 A3002 RMK AO2 SLP167 T00830000 $
KCLE 131151Z 19010KT 10SM CLR 07/00 A3002 RMK AO2 SLP169 T00670000 10078 20061 56002 $
KCLE 131051Z 19010KT 10SM CLR 07/00 A3002 RMK AO2 SLP168 T00720000 $
KCLE 130951Z 18010KT 10SM CLR 07/00 A3002 RMK AO2 SLP167 T00720000 $
KCLE 130851Z 19009KT 10SM CLR 07/M01 A3002 RMK AO2 SLP170 T00721006 56005 $
KCLE 130751Z 19012KT 10SM CLR 07/M01 A3002 RMK AO2 SLP169 T00721006 $
KCLE 130651Z 17009KT 10SM CLR 07/M01 A3003 RMK AO2 SLP171 T00671006 $
KCLE 130551Z 21009KT 10SM CLR 08/M01 A3004 RMK AO2 SLP175 T00781011 10089 20072 55007 $
KCLE 130451Z 19009KT 10SM CLR 08/M02 A3004 RMK AO2 SLP174 T00831017 401890061 $
KCLE 130351Z 18009KT 10SM CLR 08/M02 A3005 RMK AO2 SLP177 T00831017 $
KCLE 130251Z 18010KT 10SM CLR 08/M01 A3006 RMK AO2 SLP182 T00831011 58004 $
KCLE 130151Z 18007KT 10SM CLR 07/M01 A3007 RMK AO2 SLP185 T00721011 $
KCLE 130051Z 19006KT 10SM CLR 08/M01 A3007 RMK AO2 SLP187 T00781011 $
KCLE 122351Z 19006KT 10SM CLR 09/M02 A3007 RMK AO2 SLP187 T00891017 10122 20083 53001 $